Time;durP1;ratioP1;P1;durP2;ratioP2;P2;SDS_P1;SDS_P2;PMS_P1;PMS_P2;Temp;Humidity;BMP_temperature;BMP_pressure;BME280_temperature;BME280_humidity;BME280_pressure;Samples;Min_cycle;Max_cycle;Signal;HPM_P1;HPM_P2
2023/11/28 00:01:29;;;;;;;3.38;2.15;;;3.10;99.90;;;;;;5017413;28;20040;-74
2023/11/28 00:03:54;;;;;;;3.45;2.17;;;3.10;99.90;;;;;;5015669;28;20440;-74
2023/11/28 00:06:22;;;;;;;4.10;2.10;;;3.10;99.90;;;;;;5017807;28;20026;-74
2023/11/28 00:08:47;;;;;;;3.20;1.52;;;3.10;99.90;;;;;;5017471;28;20104;-74
2023/11/28 00:11:20;;;;;;;4.57;2.65;;;3.10;99.90;;;;;;5017264;28;20428;-74
2023/11/28 00:13:50;;;;;;;4.75;2.90;;;3.10;99.90;;;;;;5016967;28;20466;-74
2023/11/28 00:16:17;;;;;;;5.90;2.58;;;3.00;99.90;;;;;;5017159;28;20036;-74
2023/11/28 00:18:42;;;;;;;5.00;3.00;;;3.00;99.90;;;;;;5017015;28;20044;-74
2023/11/28 00:21:08;;;;;;;6.50;3.28;;;3.00;99.90;;;;;;5015917;28;20030;-74
2023/11/28 00:23:33;;;;;;;5.13;2.78;;;3.00;99.90;;;;;;5015899;28;20024;-74
2023/11/28 00:25:59;;;;;;;5.68;3.35;;;3.00;99.90;;;;;;5016927;28;20018;-74
2023/11/28 00:28:25;;;;;;;6.10;3.35;;;3.00;99.90;;;;;;5015766;28;20029;-74
2023/11/28 00:30:54;;;;;;;6.03;3.15;;;2.90;99.90;;;;;;5015625;28;20025;-74
2023/11/28 00:33:20;;;;;;;4.50;2.92;;;2.90;99.90;;;;;;5016920;28;20025;-74
2023/11/28 00:35:46;;;;;;;4.40;2.78;;;2.90;99.90;;;;;;5017000;28;20033;-74
2023/11/28 00:38:12;;;;;;;4.90;2.92;;;2.90;99.90;;;;;;5016716;28;20478;-74
2023/11/28 00:40:39;;;;;;;5.15;2.50;;;2.90;99.90;;;;;;5015199;28;20026;-74
2023/11/28 00:43:05;;;;;;;5.05;3.08;;;2.90;99.90;;;;;;5015387;28;20253;-74
2023/11/28 00:45:31;;;;;;;3.72;2.47;;;2.90;99.90;;;;;;5015467;28;20090;-74
2023/11/28 00:47:57;;;;;;;4.35;2.38;;;2.90;99.90;;;;;;5017073;28;20117;-74
2023/11/28 00:50:23;;;;;;;4.82;2.42;;;2.90;99.90;;;;;;5016623;28;20092;-74
2023/11/28 00:52:49;;;;;;;4.65;2.63;;;2.80;99.90;;;;;;5016506;28;20532;-74
2023/11/28 00:55:15;;;;;;;3.05;1.85;;;2.70;99.90;;;;;;5015434;28;20028;-74
2023/11/28 00:57:42;;;;;;;3.67;2.22;;;2.70;99.90;;;;;;5015099;28;20050;-74
2023/11/28 01:00:08;;;;;;;3.35;1.90;;;2.70;99.90;;;;;;5015733;28;20014;-74
2023/11/28 01:02:34;;;;;;;4.28;1.77;;;2.70;99.90;;;;;;5015234;28;20068;-74
2023/11/28 01:04:59;;;;;;;3.80;2.08;;;2.60;99.90;;;;;;5017265;28;20019;-74
2023/11/28 01:07:25;;;;;;;3.63;1.90;;;2.60;99.90;;;;;;5016168;28;20104;-74
2023/11/28 01:09:52;;;;;;;3.58;1.67;;;2.60;99.90;;;;;;5016242;28;20109;-74
2023/11/28 01:12:19;;;;;;;4.25;2.05;;;2.60;99.90;;;;;;5016306;28;20018;-74
2023/11/28 01:14:45;;;;;;;6.35;2.42;;;2.60;99.90;;;;;;5015809;28;20105;-74
2023/11/28 01:17:11;;;;;;;3.47;1.67;;;2.60;99.90;;;;;;5014529;28;20481;-74
2023/11/28 01:19:38;;;;;;;3.33;1.92;;;2.60;99.90;;;;;;5016395;28;20465;-74
2023/11/28 01:22:04;;;;;;;4.25;1.65;;;2.50;99.90;;;;;;5016175;28;20588;-74
2023/11/28 01:24:29;;;;;;;3.92;2.15;;;2.60;99.90;;;;;;5016366;28;20470;-74
2023/11/28 01:26:55;;;;;;;4.68;2.20;;;;;;;;;;5015608;28;20041;-74
2023/11/28 01:29:21;;;;;;;3.72;1.95;;;2.60;99.90;;;;;;5014392;28;20093;-74
2023/11/28 01:31:47;;;;;;;3.30;1.90;;;2.60;99.90;;;;;;5016439;28;20030;-74
2023/11/28 01:34:13;;;;;;;2.85;1.30;;;2.50;99.90;;;;;;5016245;28;20378;-74
2023/11/28 01:36:43;;;;;;;3.40;1.30;;;2.60;99.90;;;;;;5015985;28;20025;-74
2023/11/28 01:39:09;;;;;;;3.72;1.60;;;2.50;99.90;;;;;;5016017;28;20508;-74
2023/11/28 01:41:35;;;;;;;3.20;1.50;;;2.50;99.90;;;;;;5016158;28;20075;-74
2023/11/28 01:44:05;;;;;;;2.58;1.17;;;2.50;99.90;;;;;;5016387;28;20022;-75
2023/11/28 01:46:35;;;;;;;2.65;1.05;;;2.50;99.90;;;;;;5015698;28;20057;-74
2023/11/28 01:49:04;;;;;;;2.63;1.30;;;2.50;99.90;;;;;;5014403;28;20379;-74
2023/11/28 01:51:30;;;;;;;;;;;2.50;99.90;;;;;;5015876;28;20389;-74
2023/11/28 01:54:00;;;;;;;4.10;1.38;;;2.50;99.90;;;;;;5015182;28;19909;-74
2023/11/28 01:56:26;;;;;;;2.85;1.38;;;2.50;99.90;;;;;;5015298;28;20555;-74
2023/11/28 01:58:54;;;;;;;2.22;1.38;;;2.60;99.90;;;;;;5013911;28;20065;-74
2023/11/28 02:01:21;;;;;;;4.40;1.80;;;2.50;99.90;;;;;;5015143;28;20497;-74
2023/11/28 02:03:48;;;;;;;3.17;1.05;;;2.50;99.90;;;;;;5015505;28;20018;-74
2023/11/28 02:06:14;;;;;;;3.92;1.55;;;2.50;99.90;;;;;;5014339;28;20029;-74
2023/11/28 02:08:39;;;;;;;3.55;1.33;;;2.40;99.90;;;;;;5015721;28;20057;-73
2023/11/28 02:11:05;;;;;;;9.02;1.60;;;2.50;99.90;;;;;;5014620;28;20500;-74
2023/11/28 02:13:32;;;;;;;2.92;1.35;;;2.40;99.90;;;;;;5015531;28;20058;-74
2023/11/28 02:15:58;;;;;;;2.75;1.23;;;2.40;99.90;;;;;;5013710;28;20389;-74
2023/11/28 02:18:23;;;;;;;3.38;1.40;;;2.40;99.90;;;;;;5014872;28;20022;-74
2023/11/28 02:20:49;;;;;;;4.38;1.50;;;2.40;99.90;;;;;;5014998;28;20536;-74
2023/11/28 02:23:15;;;;;;;3.05;1.60;;;2.40;99.90;;;;;;5014970;28;20030;-74
2023/11/28 02:25:49;;;;;;;3.15;1.15;;;2.40;99.90;;;;;;5015517;28;20022;-74
2023/11/28 02:28:25;;;;;;;5.93;1.98;;;2.40;99.90;;;;;;5014433;28;20030;-74
2023/11/28 02:30:56;;;;;;;3.90;1.42;;;2.40;99.90;;;;;;5015470;28;20033;-74
2023/11/28 02:33:22;;;;;;;5.38;1.40;;;2.30;99.90;;;;;;5015111;28;20504;-74
2023/11/28 02:35:48;;;;;;;2.47;0.70;;;2.30;99.90;;;;;;5013252;28;20022;-74
2023/11/28 02:38:13;;;;;;;3.28;1.17;;;2.30;99.90;;;;;;5014258;28;20030;-73
2023/11/28 02:40:39;;;;;;;3.80;1.20;;;2.30;99.90;;;;;;5014474;28;20486;-74
2023/11/28 02:43:05;;;;;;;2.55;1.17;;;3.70;99.90;;;;;;5013504;28;20105;-74
2023/11/28 02:45:31;;;;;;;3.15;1.10;;;2.30;99.90;;;;;;5014980;28;20149;-74
2023/11/28 02:47:57;;;;;;;4.40;1.30;;;2.20;99.90;;;;;;5015173;28;20026;-74
2023/11/28 02:50:22;;;;;;;2.60;1.10;;;2.30;99.90;;;;;;5013394;28;20036;-74
2023/11/28 02:52:48;;;;;;;1.65;0.88;;;2.30;99.90;;;;;;5014856;28;20109;-74
2023/11/28 02:55:14;;;;;;;5.57;1.20;;;2.30;99.90;;;;;;5013171;28;20029;-74
2023/11/28 02:57:39;;;;;;;3.92;1.17;;;2.20;99.90;;;;;;5013148;28;20032;-74
2023/11/28 03:00:06;;;;;;;2.92;0.80;;;2.20;99.90;;;;;;5014729;28;20026;-74
2023/11/28 03:02:34;;;;;;;2.17;0.65;;;2.20;99.90;;;;;;5013143;28;20048;-74
2023/11/28 03:05:00;;;;;;;2.45;0.60;;;2.10;99.90;;;;;;5014323;28;20068;-74
2023/11/28 03:07:25;;;;;;;1.63;0.38;;;2.10;99.90;;;;;;5015021;28;20112;-74
2023/11/28 03:09:51;;;;;;;2.30;0.73;;;2.00;99.90;;;;;;5012974;28;20018;-74
2023/11/28 03:12:16;;;;;;;0.88;0.10;;;1.80;99.90;;;;;;5014757;28;20018;-74
2023/11/28 03:14:42;;;;;;;0.65;0.20;;;1.80;99.90;;;;;;5014651;28;20093;-74
2023/11/28 03:17:07;;;;;;;0.90;0.20;;;1.70;99.90;;;;;;5013145;28;20014;-74
2023/11/28 03:19:33;;;;;;;3.25;0.22;;;1.60;99.90;;;;;;5014320;28;20080;-74
2023/11/28 03:21:59;;;;;;;0.65;0.10;;;1.50;99.90;;;;;;5015778;28;20485;-74
2023/11/28 03:24:25;;;;;;;1.42;0.40;;;1.20;99.90;;;;;;5020610;28;20022;-74
2023/11/28 03:26:51;;;;;;;0.28;0.20;;;1.30;99.90;;;;;;5019699;28;20018;-74
2023/11/28 03:29:16;;;;;;;1.17;0.10;;;1.20;99.90;;;;;;5019490;28;20033;-74
2023/11/28 03:31:42;;;;;;;0.55;0.00;;;1.20;99.90;;;;;;5020800;28;20080;-74
2023/11/28 03:34:07;;;;;;;2.83;0.22;;;1.10;99.90;;;;;;5020732;28;20026;-74
2023/11/28 03:36:33;;;;;;;1.58;0.00;;;1.10;99.90;;;;;;5020592;28;20029;-74
2023/11/28 03:38:59;;;;;;;0.55;0.00;;;1.00;99.90;;;;;;5020583;28;20064;-74
2023/11/28 03:41:24;;;;;;;0.75;0.10;;;1.00;99.90;;;;;;5020912;28;20023;-74
2023/11/28 03:43:50;;;;;;;1.95;0.10;;;0.90;99.90;;;;;;5019050;28;20160;-74
2023/11/28 03:46:16;;;;;;;0.60;0.00;;;0.90;99.90;;;;;;5019356;28;20026;-74
2023/11/28 03:48:41;;;;;;;0.55;0.00;;;0.80;99.90;;;;;;5020631;28;20053;-74
2023/11/28 03:51:07;;;;;;;1.48;0.08;;;0.80;99.90;;;;;;5021291;28;20111;-74
2023/11/28 03:53:35;;;;;;;2.50;0.45;;;0.70;99.90;;;;;;5020861;28;20060;-74
2023/11/28 03:56:08;;;;;;;0.95;0.08;;;0.60;99.90;;;;;;5020555;28;20437;-74
2023/11/28 03:58:33;;;;;;;0.50;0.00;;;0.60;99.90;;;;;;5020568;28;20033;-74
2023/11/28 04:00:59;;;;;;;0.43;0.00;;;0.50;99.90;;;;;;5019312;28;20413;-74
2023/11/28 04:03:24;;;;;;;0.98;0.08;;;0.50;99.90;;;;;;5020471;28;20568;-74
2023/11/28 04:05:51;;;;;;;0.43;0.00;;;0.50;99.90;;;;;;5021118;28;20026;-75
2023/11/28 04:08:16;;;;;;;0.45;0.00;;;0.40;99.90;;;;;;5020464;28;20053;-74
2023/11/28 04:10:42;;;;;;;0.30;0.00;;;0.40;99.90;;;;;;5020528;28;20034;-74
2023/11/28 04:13:07;;;;;;;2.95;0.40;;;0.40;99.90;;;;;;5018993;28;20022;-75
2023/11/28 04:15:33;;;;;;;0.52;0.00;;;0.40;99.90;;;;;;5020172;28;20022;-74
2023/11/28 04:18:00;;;;;;;0.00;0.00;;;0.40;99.90;;;;;;5019805;28;20109;-74
2023/11/28 04:20:26;;;;;;;0.00;0.00;;;0.40;99.90;;;;;;5020485;28;20049;-74
2023/11/28 04:22:52;;;;;;;0.10;0.00;;;0.40;99.90;;;;;;5020215;28;20037;-74
2023/11/28 04:25:17;;;;;;;0.73;0.00;;;0.40;99.90;;;;;;5020248;28;20018;-74
2023/11/28 04:27:43;;;;;;;0.30;0.00;;;0.40;99.90;;;;;;5018755;28;20026;-74
2023/11/28 04:30:10;;;;;;;2.50;0.00;;;0.40;99.90;;;;;;5018718;28;20026;-74
2023/11/28 04:32:36;;;;;;;0.30;0.00;;;0.30;99.90;;;;;;5020168;28;20033;-74
2023/11/28 04:35:02;;;;;;;0.30;0.00;;;0.20;99.90;;;;;;5016611;28;20026;-74
2023/11/28 04:37:27;;;;;;;0.52;0.00;;;0.20;99.90;;;;;;5015961;28;20486;-74
2023/11/28 04:39:53;;;;;;;0.50;0.00;;;0.20;99.90;;;;;;5016624;28;20088;-74
2023/11/28 04:42:18;;;;;;;1.27;0.00;;;0.20;99.90;;;;;;5018092;28;20022;-74
2023/11/28 04:44:44;;;;;;;0.90;0.25;;;0.30;99.90;;;;;;5016950;28;20018;-74
2023/11/28 04:47:09;;;;;;;0.73;0.00;;;0.20;99.90;;;;;;5016789;28;20022;-74
2023/11/28 04:49:35;;;;;;;0.13;0.00;;;;;;;;;;5016923;28;20022;-74
2023/11/28 04:52:01;;;;;;;0.30;0.00;;;0.20;99.90;;;;;;5016399;28;20085;-74
2023/11/28 04:54:26;;;;;;;0.82;0.00;;;0.10;99.90;;;;;;5017306;28;20374;-74
2023/11/28 04:56:52;;;;;;;1.00;0.00;;;0.10;99.90;;;;;;5015892;28;20026;-74
2023/11/28 04:59:17;;;;;;;0.30;0.08;;;0.10;99.90;;;;;;5016737;28;20026;-74
2023/11/28 05:01:44;;;;;;;0.70;0.10;;;0.10;99.90;;;;;;5016874;28;20022;-74
2023/11/28 05:04:09;;;;;;;0.90;0.00;;;0.10;99.90;;;;;;5015480;28;20029;-74
2023/11/28 05:06:35;;;;;;;0.57;0.00;;;0.20;99.90;;;;;;5016560;28;20034;-74
2023/11/28 05:09:00;;;;;;;0.40;0.10;;;0.10;99.90;;;;;;5015435;28;20026;-74
2023/11/28 05:11:26;;;;;;;0.40;0.00;;;0.10;99.90;;;;;;5014882;28;20028;-74
2023/11/28 05:13:51;;;;;;;0.63;0.00;;;0.10;99.90;;;;;;5015169;28;20130;-74
2023/11/28 05:16:17;;;;;;;0.28;0.00;;;0.10;99.90;;;;;;5016957;28;20030;-75
2023/11/28 05:18:42;;;;;;;0.73;0.10;;;0.10;99.90;;;;;;5016052;28;20030;-75
2023/11/28 05:21:08;;;;;;;0.70;0.00;;;0.20;99.90;;;;;;5015226;28;20054;-75
2023/11/28 05:23:34;;;;;;;0.47;0.00;;;0.20;99.90;;;;;;5016139;28;20033;-75
2023/11/28 05:26:00;;;;;;;0.13;0.00;;;0.20;99.90;;;;;;5015840;28;20014;-75
2023/11/28 05:28:25;;;;;;;1.65;0.00;;;0.20;99.90;;;;;;5014864;28;20061;-75
2023/11/28 05:30:51;;;;;;;0.52;0.00;;;0.20;99.90;;;;;;5016560;28;20026;-74
2023/11/28 05:33:16;;;;;;;0.25;0.00;;;0.20;99.90;;;;;;5014614;28;20511;-75
2023/11/28 05:35:42;;;;;;;0.20;0.00;;;0.20;99.90;;;;;;5014845;28;20037;-75
2023/11/28 05:38:07;;;;;;;1.45;0.15;;;0.20;99.90;;;;;;5015799;28;20036;-75
2023/11/28 05:40:34;;;;;;;0.20;0.00;;;0.20;99.90;;;;;;5016305;28;20018;-75
2023/11/28 05:43:00;;;;;;;0.20;0.00;;;0.30;99.90;;;;;;5016447;28;20022;-75
2023/11/28 05:45:25;;;;;;;0.35;0.00;;;0.20;99.90;;;;;;5015902;28;20112;-75
2023/11/28 05:47:52;;;;;;;2.58;0.22;;;0.50;99.90;;;;;;5015592;28;20478;-75
2023/11/28 05:50:17;;;;;;;0.57;0.00;;;0.20;99.90;;;;;;5015625;28;20109;-75
2023/11/28 05:52:43;;;;;;;1.00;0.20;;;0.20;99.90;;;;;;5014364;28;20057;-75
2023/11/28 05:55:08;;;;;;;0.50;0.00;;;0.20;99.90;;;;;;5015346;28;20034;-75
2023/11/28 05:57:34;;;;;;;0.35;0.00;;;0.20;99.90;;;;;;5015379;28;20394;-75
2023/11/28 06:00:00;;;;;;;1.83;0.00;;;0.10;99.90;;;;;;5015111;28;20057;-75
2023/11/28 06:02:26;;;;;;;0.10;0.00;;;;;;;;;;5015550;28;20026;-75
2023/11/28 06:04:51;;;;;;;2.58;0.55;;;0.10;99.90;;;;;;5014175;28;20022;-74
2023/11/28 06:07:17;;;;;;;0.68;0.00;;;0.00;99.90;;;;;;5014082;28;20381;-75
2023/11/28 06:09:42;;;;;;;2.28;0.00;;;0.00;99.90;;;;;;5015185;28;20030;-75
2023/11/28 06:12:08;;;;;;;1.52;0.00;;;0.00;99.90;;;;;;5013986;28;20026;-75
2023/11/28 06:14:35;;;;;;;0.47;0.00;;;-0.10;99.90;;;;;;5013839;28;20112;-75
2023/11/28 06:17:01;;;;;;;1.08;0.00;;;-0.10;99.90;;;;;;5013848;28;20088;-75
2023/11/28 06:19:27;;;;;;;0.17;0.03;;;-0.10;99.90;;;;;;5015242;28;20029;-75
2023/11/28 06:21:53;;;;;;;0.60;0.00;;;-0.20;99.90;;;;;;5014002;28;20362;-75
2023/11/28 06:24:19;;;;;;;1.13;0.00;;;-0.20;99.90;;;;;;5015000;28;20025;-75
2023/11/28 06:26:45;;;;;;;4.32;0.30;;;-0.20;99.90;;;;;;5013593;28;20482;-75
2023/11/28 06:29:10;;;;;;;1.55;0.20;;;-0.20;99.90;;;;;;5015057;28;20018;-75
2023/11/28 06:31:36;;;;;;;0.17;0.08;;;-0.20;99.90;;;;;;5013429;28;20025;-75
2023/11/28 06:34:01;;;;;;;0.63;0.00;;;-0.30;99.90;;;;;;5014567;28;20084;-75
2023/11/28 06:36:27;;;;;;;0.00;0.00;;;-0.30;99.90;;;;;;5015384;28;20473;-75
2023/11/28 06:38:55;;;;;;;3.45;0.00;;;-0.30;99.90;;;;;;5014723;28;20121;-75
2023/11/28 06:41:20;;;;;;;0.17;0.00;;;-0.30;99.90;;;;;;5013418;28;20076;-75
2023/11/28 06:43:46;;;;;;;0.10;0.00;;;-0.30;99.90;;;;;;5015184;28;20050;-75
2023/11/28 06:46:13;;;;;;;1.40;0.08;;;-0.30;99.90;;;;;;5015435;28;20044;-74
2023/11/28 06:48:38;;;;;;;0.95;0.00;;;-0.30;99.90;;;;;;5013242;28;20021;-74
2023/11/28 06:51:04;;;;;;;1.23;0.30;;;-0.40;99.90;;;;;;5014375;28;20030;-74
2023/11/28 06:53:30;;;;;;;0.15;0.00;;;-0.30;99.90;;;;;;5014485;28;20030;-76
2023/11/28 06:55:55;;;;;;;0.63;0.00;;;-0.30;99.90;;;;;;5014713;28;20030;-76
2023/11/28 06:58:21;;;;;;;1.02;0.10;;;-0.20;99.90;;;;;;5014624;28;20026;-76
2023/11/28 07:00:47;;;;;;;1.65;0.10;;;-0.20;99.90;;;;;;5013064;28;20109;-76
2023/11/28 07:03:13;;;;;;;1.75;0.00;;;-0.20;99.90;;;;;;5013448;28;20068;-76
2023/11/28 07:05:38;;;;;;;1.95;0.00;;;-0.20;99.90;;;;;;5012963;28;20485;-76
2023/11/28 07:08:05;;;;;;;1.30;0.10;;;-0.20;99.90;;;;;;5013915;28;20409;-76
2023/11/28 07:10:31;;;;;;;1.05;0.00;;;-0.20;99.90;;;;;;5012988;28;20041;-75
2023/11/28 07:12:56;;;;;;;3.25;0.30;;;-0.20;99.90;;;;;;5014422;28;20096;-74
2023/11/28 07:15:22;;;;;;;1.98;0.10;;;-0.20;99.90;;;;;;5014731;28;20025;-75
2023/11/28 07:17:49;;;;;;;1.27;0.00;;;-0.20;99.90;;;;;;5014770;28;20030;-76
2023/11/28 07:20:15;;;;;;;0.10;0.00;;;-0.20;99.90;;;;;;5014915;28;20014;-75
2023/11/28 07:22:41;;;;;;;0.50;0.00;;;-0.20;99.90;;;;;;5015441;28;20025;-76
2023/11/28 07:25:09;;;;;;;0.73;0.00;;;-0.30;99.90;;;;;;5014563;28;20022;-76
2023/11/28 07:27:34;;;;;;;1.65;0.10;;;-0.30;99.90;;;;;;5014552;28;20509;-75
2023/11/28 07:30:01;;;;;;;0.47;0.00;;;-0.30;99.90;;;;;;5014340;28;20029;-75
2023/11/28 07:32:26;;;;;;;1.75;0.00;;;-0.30;99.90;;;;;;5012785;28;20084;-76
2023/11/28 07:34:52;;;;;;;0.20;0.00;;;-0.30;99.90;;;;;;5013134;28;20034;-75
2023/11/28 07:37:17;;;;;;;2.10;0.00;;;-0.20;99.90;;;;;;5015079;28;20018;-75
2023/11/28 07:39:43;;;;;;;2.83;0.00;;;-0.20;99.90;;;;;;5012592;28;20061;-76
2023/11/28 07:42:08;;;;;;;3.13;0.00;;;-0.30;99.90;;;;;;5014558;28;20053;-75
2023/11/28 07:44:35;;;;;;;0.55;0.00;;;-0.30;99.90;;;;;;5014718;28;20033;-76
2023/11/28 07:47:00;;;;;;;1.75;0.00;;;-0.30;99.90;;;;;;5014227;28;20033;-75
2023/11/28 07:49:26;;;;;;;0.22;0.00;;;-0.30;99.90;;;;;;5014666;28;20501;-76
2023/11/28 07:51:51;;;;;;;4.05;0.10;;;-0.30;99.90;;;;;;5014864;28;20034;-76
2023/11/28 07:54:17;;;;;;;1.10;0.00;;;-0.30;99.90;;;;;;5014537;28;20036;-75
2023/11/28 07:56:42;;;;;;;1.98;0.10;;;-0.30;99.90;;;;;;5014847;28;20061;-76
2023/11/28 07:59:08;;;;;;;1.08;0.10;;;-0.30;99.90;;;;;;5012924;28;20049;-76
2023/11/28 08:01:33;;;;;;;2.50;0.40;;;-0.20;99.90;;;;;;5014328;28;20389;-76
2023/11/28 08:03:59;;;;;;;1.65;0.20;;;-0.20;99.90;;;;;;5014345;28;20101;-76
2023/11/28 08:06:25;;;;;;;0.65;0.00;;;-0.10;99.90;;;;;;5012902;28;20109;-75
2023/11/28 08:08:50;;;;;;;1.05;0.08;;;-0.10;99.90;;;;;;5013239;28;20048;-75
2023/11/28 08:11:16;;;;;;;2.30;0.43;;;0.00;99.90;;;;;;5018346;28;20033;-76
2023/11/28 08:13:42;;;;;;;1.48;0.20;;;0.00;99.90;;;;;;5018131;28;20386;-75
2023/11/28 08:16:08;;;;;;;0.43;0.10;;;0.10;99.90;;;;;;5017604;28;20101;-75
2023/11/28 08:18:33;;;;;;;3.10;0.10;;;0.20;99.90;;;;;;5017811;28;20053;-75
2023/11/28 08:21:02;;;;;;;1.35;0.13;;;0.20;99.90;;;;;;5017773;28;20407;-75
2023/11/28 08:23:28;;;;;;;2.22;0.20;;;0.30;99.90;;;;;;5017700;28;20010;-75
2023/11/28 08:25:53;;;;;;;0.95;0.43;;;0.30;99.90;;;;;;5017499;28;20030;-76
2023/11/28 08:28:19;;;;;;;1.00;0.20;;;;;;;;;;5016188;28;20164;-75
2023/11/28 08:30:45;;;;;;;1.25;0.25;;;0.50;99.90;;;;;;5016680;28;20034;-76
2023/11/28 08:33:10;;;;;;;2.38;0.20;;;0.50;99.90;;;;;;5017770;28;20033;-76
2023/11/28 08:35:36;;;;;;;1.38;0.20;;;0.60;99.90;;;;;;5017705;28;20025;-76
2023/11/28 08:38:01;;;;;;;1.45;0.20;;;0.70;99.90;;;;;;5018002;28;20042;-76
2023/11/28 08:40:27;;;;;;;3.63;0.38;;;0.70;99.90;;;;;;5016474;28;20072;-76
2023/11/28 08:42:54;;;;;;;1.05;0.10;;;0.80;99.90;;;;;;5016266;28;20129;-76
2023/11/28 08:45:19;;;;;;;1.60;0.45;;;0.90;99.90;;;;;;5016174;28;20089;-76
2023/11/28 08:47:45;;;;;;;3.72;0.17;;;0.90;99.90;;;;;;5017022;28;20042;-76
2023/11/28 08:50:12;;;;;;;3.72;0.20;;;1.00;99.90;;;;;;5015620;28;20417;-76
2023/11/28 08:52:37;;;;;;;3.35;0.10;;;1.10;99.90;;;;;;5017747;28;20385;-76
2023/11/28 08:55:04;;;;;;;1.20;0.30;;;1.20;99.90;;;;;;5017232;28;20100;-76
2023/11/28 08:57:35;;;;;;;2.55;0.20;;;1.20;99.90;;;;;;5015672;28;20033;-75
2023/11/28 09:00:05;;;;;;;0.75;0.15;;;1.30;99.90;;;;;;5015733;28;20460;-75
2023/11/28 09:02:31;;;;;;;0.65;0.20;;;1.40;99.90;;;;;;5015523;28;20014;-76
2023/11/28 09:04:56;;;;;;;0.95;0.20;;;1.50;99.90;;;;;;5016960;28;20520;-75
2023/11/28 09:07:22;;;;;;;5.00;0.20;;;1.50;99.90;;;;;;5017260;28;20473;-76
2023/11/28 09:09:47;;;;;;;3.13;0.10;;;1.70;99.90;;;;;;5017122;28;20108;-75
2023/11/28 09:12:17;;;;;;;2.53;0.30;;;1.60;99.90;;;;;;5015155;28;20026;-76
2023/11/28 09:14:44;;;;;;;3.40;0.30;;;1.70;99.90;;;;;;5016661;28;20056;-76
2023/11/28 09:17:09;;;;;;;1.92;0.10;;;1.80;99.90;;;;;;5015881;28;20034;-76
2023/11/28 09:19:35;;;;;;;2.47;0.13;;;1.80;99.90;;;;;;5016533;28;20397;-76
2023/11/28 09:22:02;;;;;;;1.23;0.10;;;1.90;99.90;;;;;;5015401;28;20375;-76
2023/11/28 09:24:31;;;;;;;1.27;0.08;;;2.00;99.90;;;;;;5015653;28;20029;-76
2023/11/28 09:26:57;;;;;;;2.65;0.20;;;2.10;99.90;;;;;;5016355;28;20053;-75
2023/11/28 09:29:23;;;;;;;2.13;0.20;;;2.20;99.90;;;;;;5015292;28;20117;-75
2023/11/28 09:31:49;;;;;;;1.17;0.17;;;2.20;99.90;;;;;;5016391;28;20458;-75
2023/11/28 09:34:15;;;;;;;2.60;0.45;;;2.30;99.90;;;;;;5016746;28;20029;-76
2023/11/28 09:36:41;;;;;;;1.42;0.10;;;2.30;99.90;;;;;;5015429;28;20108;-75
2023/11/28 09:39:09;;;;;;;1.45;0.10;;;2.40;99.90;;;;;;5016579;28;20454;-76
2023/11/28 09:41:38;;;;;;;1.38;0.20;;;2.40;99.90;;;;;;5016198;28;20053;-75
2023/11/28 09:44:05;;;;;;;1.45;0.10;;;2.50;99.90;;;;;;5015100;28;20018;-76
2023/11/28 09:46:33;;;;;;;0.93;0.08;;;2.50;99.90;;;;;;5016514;28;20386;-76
2023/11/28 09:49:01;;;;;;;1.10;0.17;;;2.60;99.90;;;;;;5014862;28;20018;-75
2023/11/28 09:51:27;;;;;;;0.90;0.10;;;2.70;99.90;;;;;;5015967;28;20601;-75
2023/11/28 09:53:57;;;;;;;1.88;0.15;;;2.70;99.90;;;;;;5016000;28;20050;-75
2023/11/28 09:56:24;;;;;;;1.77;0.10;;;2.80;99.90;;;;;;5016124;28;20383;-76
2023/11/28 09:58:58;;;;;;;2.13;0.30;;;2.90;99.90;;;;;;5015055;28;20028;-75
2023/11/28 10:01:25;;;;;;;3.22;0.10;;;2.90;99.90;;;;;;5015808;28;20046;-75
2023/11/28 10:03:51;;;;;;;2.50;0.25;;;3.00;99.90;;;;;;5016842;28;20026;-76
2023/11/28 10:06:24;;;;;;;1.30;0.10;;;3.10;99.90;;;;;;5016170;28;20524;-75
2023/11/28 10:08:50;;;;;;;0.45;0.00;;;3.10;99.90;;;;;;5014286;28;20033;-75
2023/11/28 10:11:17;;;;;;;3.05;0.00;;;3.20;99.90;;;;;;5016001;28;20029;-75
2023/11/28 10:13:46;;;;;;;3.08;0.20;;;3.30;99.90;;;;;;5014624;28;20032;-75
2023/11/28 10:16:13;;;;;;;1.48;0.30;;;3.30;99.90;;;;;;5014419;28;20085;-75
2023/11/28 10:18:43;;;;;;;3.70;0.52;;;3.40;99.90;;;;;;5014863;28;20022;-75
2023/11/28 10:21:08;;;;;;;1.45;0.10;;;3.40;99.90;;;;;;5013472;28;20026;-75
2023/11/28 10:23:34;;;;;;;0.73;0.10;;;3.50;99.90;;;;;;5013715;28;20072;-75
2023/11/28 10:26:00;;;;;;;0.90;0.00;;;3.50;99.90;;;;;;5014800;28;20049;-75
2023/11/28 10:28:25;;;;;;;1.75;0.10;;;3.50;99.90;;;;;;5013476;28;20041;-75
2023/11/28 10:30:51;;;;;;;2.25;0.10;;;3.50;99.90;;;;;;5015059;28;20034;-75
2023/11/28 10:33:17;;;;;;;0.63;0.10;;;3.60;99.90;;;;;;5014087;28;20026;-75
2023/11/28 10:35:44;;;;;;;0.60;0.10;;;3.50;99.90;;;;;;5014870;28;20014;-75
2023/11/28 10:38:17;;;;;;;2.50;0.00;;;3.60;99.90;;;;;;5014593;28;20030;-75
2023/11/28 10:40:47;;;;;;;0.90;0.32;;;3.60;99.90;;;;;;5013759;28;20515;-75
2023/11/28 10:43:13;;;;;;;3.30;0.35;;;3.70;99.90;;;;;;5014622;28;20072;-75
2023/11/28 10:45:41;;;;;;;2.28;0.40;;;3.80;99.90;;;;;;5013322;28;20037;-75
2023/11/28 10:48:07;;;;;;;0.80;0.08;;;3.90;99.90;;;;;;5014543;28;20033;-75
2023/11/28 10:50:32;;;;;;;1.50;0.10;;;3.80;99.90;;;;;;5013373;28;20030;-75
2023/11/28 10:53:02;;;;;;;1.00;0.08;;;3.90;99.90;;;;;;5013418;28;20116;-75
2023/11/28 10:55:31;;;;;;;0.28;0.10;;;3.90;99.90;;;;;;5014389;28;20567;-75
2023/11/28 10:58:03;;;;;;;2.00;0.10;;;3.90;99.90;;;;;;5013090;28;20022;-75
2023/11/28 11:00:30;;;;;;;1.73;0.10;;;4.00;99.90;;;;;;5014642;28;20504;-75
2023/11/28 11:02:57;;;;;;;0.47;0.08;;;4.00;99.90;;;;;;5014456;28;20061;-75
2023/11/28 11:05:25;;;;;;;0.63;0.10;;;4.00;99.90;;;;;;5015025;28;20033;-75
2023/11/28 11:07:52;;;;;;;0.98;0.00;;;3.90;99.90;;;;;;5014646;28;20501;-75
2023/11/28 11:10:18;;;;;;;1.08;0.10;;;3.90;99.90;;;;;;5014668;28;20532;-75
2023/11/28 11:12:50;;;;;;;2.30;0.10;;;3.90;99.90;;;;;;5014533;28;20056;-75
2023/11/28 11:15:29;;;;;;;0.30;0.00;;;4.00;99.90;;;;;;5014321;28;20026;-75
2023/11/28 11:18:13;;;;;;;1.05;0.17;;;4.10;99.90;;;;;;5013136;28;20029;-75
2023/11/28 11:20:41;;;;;;;0.77;0.10;;;4.10;99.90;;;;;;5014141;28;20022;-75
2023/11/28 11:23:08;;;;;;;1.38;0.10;;;4.20;99.90;;;;;;5013833;28;20111;-75
2023/11/28 11:25:41;;;;;;;0.80;0.20;;;4.30;99.90;;;;;;5014409;28;20018;-75
2023/11/28 11:28:10;;;;;;;0.30;0.10;;;4.40;99.90;;;;;;5015050;28;20049;-75
2023/11/28 11:30:39;;;;;;;3.53;0.10;;;4.50;99.90;;;;;;5013032;28;20022;-75
2023/11/28 11:33:07;;;;;;;0.15;0.00;;;4.50;99.90;;;;;;5014277;28;20030;-75
2023/11/28 11:36:04;;;;;;;3.20;0.55;;;4.60;99.90;;;;;;5014205;28;20026;-75
2023/11/28 11:38:30;;;;;;;0.20;0.00;;;4.70;99.90;;;;;;5012694;28;20393;-75
2023/11/28 11:40:56;;;;;;;2.08;0.10;;;4.60;99.90;;;;;;5014046;28;20022;-75
2023/11/28 11:43:23;;;;;;;1.45;0.30;;;4.70;99.90;;;;;;5013746;28;20385;-75
2023/11/28 11:45:49;;;;;;;3.03;0.10;;;4.70;99.90;;;;;;5017574;28;20025;-75
2023/11/28 11:48:30;;;;;;;0.38;0.00;;;4.70;99.90;;;;;;5018191;28;20025;-75
2023/11/28 11:50:56;;;;;;;2.25;0.10;;;4.80;99.90;;;;;;5017816;28;20034;-75
2023/11/28 11:53:23;;;;;;;2.33;0.10;;;4.80;99.90;;;;;;5016764;28;20032;-75
2023/11/28 11:55:48;;;;;;;1.38;0.05;;;4.80;99.90;;;;;;5017879;28;20069;-75
2023/11/28 11:58:14;;;;;;;2.75;0.00;;;4.70;99.90;;;;;;5017928;28;20034;-75
2023/11/28 12:00:45;;;;;;;1.02;0.00;;;4.80;99.90;;;;;;5016580;28;20022;-75
2023/11/28 12:03:11;;;;;;;0.73;0.00;;;4.80;99.90;;;;;;5017733;28;20018;-75
2023/11/28 12:05:37;;;;;;;1.98;0.08;;;4.80;99.90;;;;;;5016331;28;20362;-75
2023/11/28 12:08:03;;;;;;;6.18;0.17;;;4.90;99.90;;;;;;5017569;28;20474;-75
2023/11/28 12:10:29;;;;;;;0.90;0.00;;;4.90;99.90;;;;;;5017828;28;20446;-75
2023/11/28 12:12:55;;;;;;;0.38;0.00;;;4.90;99.90;;;;;;5017739;28;20029;-75
2023/11/28 12:15:21;;;;;;;0.38;0.00;;;4.90;99.90;;;;;;5016596;28;20033;-75
2023/11/28 12:17:47;;;;;;;1.50;0.10;;;5.00;99.90;;;;;;5016247;28;20493;-75
2023/11/28 12:20:13;;;;;;;0.47;0.00;;;5.10;99.90;;;;;;5015851;28;20014;-75
2023/11/28 12:22:39;;;;;;;0.52;0.00;;;5.20;99.90;;;;;;5017335;28;20022;-75
2023/11/28 12:25:06;;;;;;;0.73;0.10;;;5.30;99.90;;;;;;5017198;28;20018;-75
2023/11/28 12:27:32;;;;;;;0.35;0.00;;;5.40;99.90;;;;;;5017415;28;20041;-75
2023/11/28 12:29:59;;;;;;;0.63;0.00;;;5.30;99.90;;;;;;5017137;28;20053;-75
2023/11/28 12:32:26;;;;;;;1.55;0.00;;;5.30;99.90;;;;;;5017219;28;20034;-75
2023/11/28 12:34:52;;;;;;;1.65;0.30;;;5.40;99.90;;;;;;5016388;28;20108;-75
2023/11/28 12:37:21;;;;;;;1.67;0.10;;;5.30;99.90;;;;;;5017832;28;20060;-75
2023/11/28 12:39:47;;;;;;;0.45;0.10;;;5.50;99.90;;;;;;5015715;28;20069;-75
2023/11/28 12:42:13;;;;;;;0.30;0.00;;;5.70;99.90;;;;;;5017076;28;20030;-75
2023/11/28 12:44:39;;;;;;;0.55;0.03;;;5.80;99.90;;;;;;5017204;28;20045;-75
2023/11/28 12:47:05;;;;;;;1.60;0.00;;;5.90;99.90;;;;;;5017324;28;20028;-75
2023/11/28 12:49:34;;;;;;;0.45;0.00;;;5.80;99.90;;;;;;5017334;28;20525;-75
2023/11/28 12:52:00;;;;;;;0.47;0.00;;;5.70;99.90;;;;;;5015830;28;20072;-75
2023/11/28 12:54:26;;;;;;;6.45;0.30;;;;;;;;;;5016355;28;20034;-75